This is the latest recevied weather packets stored in our database for station/object VE9LJW. If no packets are shown the sender has not sent any weather packets the latest 10 day(s).
| Time | Temp. | Humidity | Pressure | Rain* | Wind** | Luminosity | Snow |
|---|---|---|---|---|---|---|---|
| 1778081166 | 15.56° C | 90% | 1008.8 hPa | 0 mm | - | 141 W/m² | - |
| 1778080863 | 16.11° C | 89% | 1008.8 hPa | 0 mm | - | 158 W/m² | - |
| 1778080561 | 16.11° C | 89% | 1008.9 hPa | 0 mm | - | 172 W/m² | - |
| 1778080258 | 16.67° C | 87% | 1009 hPa | 0 mm | - | 181 W/m² | - |
| 1778079955 | 16.67° C | 87% | 1008.8 hPa | 0 mm | - | 228 W/m² | - |
| 1778079651 | 17.22° C | 86% | 1008.8 hPa | 0 mm | - | 229 W/m² | - |
| 1778079348 | 16.67° C | 87% | 1008.9 hPa | 0 mm | - | 300 W/m² | - |
| 1778079046 | 16.11° C | 86% | 1008.9 hPa | 0 mm | - | 421 W/m² | - |
| 1778078742 | 16.67° C | 87% | 1009 hPa | 0 mm | - | 311 W/m² | - |
| 1778078440 | 16.11° C | 87% | 1009.1 hPa | 0 mm | - | 340 W/m² | - |
| 1778078137 | 16.67° C | 87% | 1009 hPa | 0 mm | - | 335 W/m² | - |
| 1778077836 | 16.67° C | 88% | 1009 hPa | 0 mm | - | 428 W/m² | - |
| 1778077533 | 16.11° C | 87% | 1008.7 hPa | 0 mm | - | 464 W/m² | - |
| 1778077231 | 16.11° C | 88% | 1008.8 hPa | 0 mm | - | 402 W/m² | - |
| 1778076929 | 16.67° C | 88% | 1008.8 hPa | 0 mm | - | 301 W/m² | - |
| 1778076627 | 16.67° C | 88% | 1008.8 hPa | 0 mm | - | 369 W/m² | - |
| 1778076324 | 16.11° C | 90% | 1008.7 hPa | 0 mm | - | 417 W/m² | - |
| 1778076021 | 16.11° C | 88% | 1008.9 hPa | 0 mm | - | 406 W/m² | - |
| 1778075718 | 15.56° C | 90% | 1008.9 hPa | 0 mm | - | 495 W/m² | - |
| 1778075414 | 15.56° C | 92% | 1009.1 hPa | 0 mm | - | 357 W/m² | - |
| 1778075110 | 15° C | 93% | 1008.8 hPa | 0 mm | - | 341 W/m² | - |
| 1778074807 | 15.56° C | 94% | 1009 hPa | 0 mm | - | 202 W/m² | - |
| 1778074504 | 15° C | 94% | 1009.1 hPa | 0 mm | - | 231 W/m² | - |
| 1778074201 | 15° C | 95% | 1009.2 hPa | 0 mm | - | 214 W/m² | - |
| 1778073898 | 15° C | 95% | 1009.3 hPa | 0 mm | - | 172 W/m² | - |
* Rain latest hour (hover to see other rain measurements)
** Current wind speed in m/s (hover to see current wind gust speed)